createdAt,value
2023-04-11T00:01:09.005Z,14.70
2023-04-11T00:03:40.511Z,14.80
2023-04-11T00:06:10.879Z,14.70
2023-04-11T00:08:40.887Z,14.70
2023-04-11T00:11:10.506Z,14.60
2023-04-11T00:13:40.634Z,14.70
2023-04-11T00:16:11.361Z,14.70
2023-04-11T00:18:42.651Z,14.80
2023-04-11T00:21:13.030Z,14.90
2023-04-11T00:23:43.151Z,14.80
2023-04-11T00:26:12.868Z,14.60
2023-04-11T00:28:43.396Z,14.70
2023-04-11T00:31:13.723Z,14.60
2023-04-11T00:33:44.241Z,14.50
2023-04-11T00:36:13.793Z,14.50
2023-04-11T00:38:44.884Z,14.50
2023-04-11T00:41:15.028Z,14.30
2023-04-11T00:43:44.918Z,14.40
2023-04-11T00:46:17.719Z,14.30
2023-04-11T00:48:48.210Z,14.20
2023-04-11T00:51:18.552Z,14.20
2023-04-11T00:53:49.078Z,14.30
2023-04-11T00:56:19.201Z,14.20
2023-04-11T00:58:49.111Z,14.20
2023-04-11T01:01:20.239Z,14.20
2023-04-11T01:03:51.160Z,14.30
2023-04-11T01:06:22.763Z,14.10
2023-04-11T01:08:53.138Z,14.10
2023-04-11T01:11:24.221Z,14.20
2023-04-11T01:13:55.159Z,14.30
2023-04-11T01:16:25.349Z,14.30
2023-04-11T01:18:55.780Z,14.40
2023-04-11T01:21:27.566Z,14.30
2023-04-11T01:23:58.915Z,14.40
2023-04-11T01:26:29.034Z,14.30
2023-04-11T01:28:59.153Z,14.20
2023-04-11T01:31:28.815Z,14.30
2023-04-11T01:33:58.587Z,14.30
2023-04-11T01:36:28.903Z,14.30
2023-04-11T01:38:58.813Z,14.40
2023-04-11T01:41:30.977Z,14.20
2023-04-11T01:44:01.911Z,14.30
2023-04-11T01:46:32.297Z,14.30
2023-04-11T01:49:02.423Z,14.30
2023-04-11T01:51:33.089Z,14.40
2023-04-11T01:54:03.007Z,14.40
2023-04-11T01:56:33.945Z,14.30
2023-04-11T01:59:04.677Z,14.30
2023-04-11T02:01:34.823Z,14.40
2023-04-11T02:04:04.587Z,14.40
2023-04-11T02:06:35.238Z,14.40
2023-04-11T02:09:05.385Z,14.30
2023-04-11T02:11:35.000Z,14.30
2023-04-11T02:14:06.624Z,14.50
2023-04-11T02:16:38.379Z,14.60
2023-04-11T02:19:08.090Z,14.50
2023-04-11T02:21:38.006Z,14.40
2023-04-11T02:25:44.993Z,14.20
2023-04-11T02:28:14.627Z,14.10
2023-04-11T02:30:44.934Z,14.10
2023-04-11T02:33:14.950Z,14.20
2023-04-11T02:35:45.191Z,14.20
2023-04-11T02:38:15.648Z,14.30
2023-04-11T02:40:46.118Z,14.40
2023-04-11T02:43:16.508Z,14.30
2023-04-11T02:45:46.318Z,14.30
2023-04-11T02:48:16.276Z,14.40
2023-04-11T02:50:47.012Z,14.30
2023-04-11T02:53:17.741Z,14.30
2023-04-11T02:55:49.495Z,14.30
2023-04-11T02:58:20.451Z,14.20
2023-04-11T03:00:51.576Z,14.10
2023-04-11T03:03:21.655Z,14.10
2023-04-11T03:05:52.023Z,14.10
2023-04-11T03:08:23.984Z,14.20
2023-04-11T03:10:54.820Z,14.10
2023-04-11T03:13:26.428Z,14.20
2023-04-11T03:15:56.840Z,14.30
2023-04-11T03:18:28.968Z,14.20
2023-04-11T03:20:59.308Z,14.10
2023-04-11T03:23:29.413Z,14.10
2023-04-11T03:26:00.762Z,14.10
2023-04-11T03:28:30.879Z,14.00
2023-04-11T03:31:01.033Z,14.00
2023-04-11T03:33:30.915Z,14.10
2023-04-11T03:36:01.158Z,14.10
2023-04-11T03:38:31.154Z,14.10
2023-04-11T03:41:01.274Z,14.10
2023-04-11T03:43:31.188Z,14.10
2023-04-11T03:46:01.723Z,14.10
2023-04-11T03:48:33.721Z,14.00
2023-04-11T03:51:06.472Z,14.00
2023-04-11T03:53:54.873Z,14.00
2023-04-11T03:56:29.445Z,14.10
2023-04-11T03:58:59.754Z,14.00
2023-04-11T04:01:32.601Z,14.00
2023-04-11T04:04:05.176Z,14.00
2023-04-11T04:06:37.488Z,13.90
2023-04-11T04:09:07.365Z,13.90
2023-04-11T04:11:38.745Z,14.00
2023-04-11T04:14:08.868Z,14.00
2023-04-11T04:16:39.629Z,14.00
2023-04-11T04:19:09.924Z,14.00
2023-04-11T04:21:40.453Z,14.00
2023-04-11T04:24:11.951Z,14.00
2023-04-11T04:27:02.365Z,14.10
2023-04-11T04:29:42.348Z,14.10
2023-04-11T04:32:15.336Z,14.10
2023-04-11T04:34:56.325Z,14.10
2023-04-11T04:37:28.270Z,14.10
2023-04-11T04:40:11.121Z,14.00
2023-04-11T04:42:43.485Z,14.10
2023-04-11T04:45:13.579Z,14.10
2023-04-11T04:47:44.337Z,14.00
2023-04-11T04:50:14.458Z,14.00
2023-04-11T04:52:44.140Z,14.00
2023-04-11T04:55:13.852Z,14.00
2023-04-11T04:57:44.585Z,14.10
2023-04-11T05:00:15.336Z,14.10
2023-04-11T05:02:47.594Z,14.00
2023-04-11T05:05:17.811Z,14.00
2023-04-11T05:07:48.955Z,14.00
2023-04-11T05:10:19.285Z,14.00
2023-04-11T05:12:50.625Z,14.00
2023-04-11T05:15:22.106Z,13.90
2023-04-11T05:17:52.962Z,13.90
2023-04-11T05:20:24.874Z,13.90
2023-04-11T05:23:07.724Z,14.00
2023-04-11T05:25:37.609Z,13.90
2023-04-11T05:28:08.343Z,13.80
2023-04-11T05:30:38.280Z,13.80
2023-04-11T05:33:08.396Z,13.70
2023-04-11T05:35:38.304Z,13.70
2023-04-11T05:38:10.029Z,13.70
2023-04-11T05:40:41.437Z,13.90
2023-04-11T05:43:13.221Z,14.00
2023-04-11T05:45:45.261Z,13.90
2023-04-11T05:48:19.779Z,13.90
2023-04-11T05:50:51.705Z,13.90
2023-04-11T05:53:21.579Z,13.90
2023-04-11T05:55:51.623Z,13.90
2023-04-11T05:58:21.551Z,13.80
2023-04-11T06:00:51.170Z,13.90
2023-04-11T06:03:21.825Z,13.90
2023-04-11T06:05:52.021Z,13.90
2023-04-11T06:08:22.104Z,13.80
2023-04-11T06:10:51.568Z,13.90
2023-04-11T06:13:21.546Z,14.00
2023-04-11T06:15:51.232Z,13.90
2023-04-11T06:18:21.617Z,14.00
2023-04-11T06:20:51.088Z,14.00
2023-04-11T06:23:20.580Z,14.00
2023-04-11T06:25:50.102Z,14.10
2023-04-11T06:28:19.673Z,14.10
2023-04-11T06:30:49.216Z,14.10
2023-04-11T06:33:18.933Z,14.20
2023-04-11T06:35:48.452Z,14.10
2023-04-11T06:38:17.914Z,14.10
2023-04-11T06:40:49.126Z,14.10
2023-04-11T06:43:18.590Z,14.30
2023-04-11T06:45:50.035Z,14.40
2023-04-11T06:48:20.983Z,14.50
2023-04-11T06:50:50.846Z,14.40
2023-04-11T06:53:20.314Z,14.60
2023-04-11T06:55:50.623Z,14.60
2023-04-11T06:58:20.079Z,14.60
2023-04-11T07:00:49.556Z,14.60
2023-04-11T07:03:20.275Z,14.70
2023-04-11T07:05:50.908Z,14.90
2023-04-11T07:08:21.316Z,14.70
2023-04-11T07:10:50.796Z,14.70
2023-04-11T07:13:21.761Z,14.70
2023-04-11T07:15:51.287Z,14.60
2023-04-11T07:18:21.453Z,14.50
2023-04-11T07:20:52.811Z,14.40
2023-04-11T07:23:23.672Z,14.40
2023-04-11T07:25:54.668Z,14.40
2023-04-11T07:28:25.741Z,14.40
2023-04-11T07:30:55.433Z,14.40
2023-04-11T07:33:25.737Z,14.40
2023-04-11T07:35:55.256Z,14.50
2023-04-11T07:38:29.916Z,14.60
2023-04-11T07:41:02.092Z,14.50
2023-04-11T07:43:32.109Z,14.50
2023-04-11T07:46:01.748Z,14.60
2023-04-11T07:48:33.471Z,14.60
2023-04-11T07:51:03.216Z,14.60
2023-04-11T07:53:35.189Z,14.60
2023-04-11T07:56:05.209Z,14.50
2023-04-11T07:58:34.652Z,14.60
2023-04-11T08:01:07.323Z,14.50
2023-04-11T08:03:36.923Z,14.60
2023-04-11T08:06:08.025Z,14.50
2023-04-11T08:08:37.482Z,14.50
2023-04-11T08:11:07.195Z,14.60
2023-04-11T08:13:36.780Z,14.60
2023-04-11T08:16:11.938Z,14.70
2023-04-11T08:18:42.753Z,14.70
2023-04-11T08:21:13.147Z,14.90
2023-04-11T08:23:42.945Z,14.90
2023-04-11T08:26:13.361Z,14.90
2023-04-11T08:28:43.650Z,15.00
2023-04-11T08:31:13.747Z,15.10
2023-04-11T08:33:43.575Z,15.00
2023-04-11T08:36:13.436Z,15.10
2023-04-11T08:38:43.080Z,15.50
2023-04-11T08:41:14.703Z,16.10
2023-04-11T08:43:46.277Z,16.00
2023-04-11T08:46:17.516Z,15.80
2023-04-11T08:48:47.197Z,15.70
2023-04-11T08:51:27.031Z,15.90
2023-04-11T08:54:00.140Z,16.00
2023-04-11T08:56:29.697Z,15.90
2023-04-11T08:58:59.247Z,15.90
2023-04-11T09:01:34.200Z,15.90
2023-04-11T09:04:05.973Z,16.20
2023-04-11T09:06:35.850Z,17.00
2023-04-11T09:09:06.772Z,17.40
2023-04-11T09:11:53.652Z,17.40
2023-04-11T09:14:28.007Z,17.40
2023-04-11T09:17:03.219Z,17.60
2023-04-11T09:19:38.140Z,17.50
2023-04-11T09:22:08.887Z,17.40
2023-04-11T09:24:39.987Z,17.50
2023-04-11T09:27:15.698Z,17.50
2023-04-11T09:29:47.897Z,17.50
2023-04-11T09:32:34.615Z,17.30
2023-04-11T09:35:16.429Z,17.50
2023-04-11T09:37:48.807Z,18.50
2023-04-11T09:40:20.563Z,19.20
2023-04-11T09:42:52.692Z,19.90
2023-04-11T09:45:24.077Z,21.10
2023-04-11T09:47:56.966Z,20.80
2023-04-11T09:50:27.428Z,19.70
2023-04-11T09:52:59.097Z,20.20
2023-04-11T09:55:28.573Z,20.00
2023-04-11T09:57:58.056Z,20.70
2023-04-11T10:00:32.842Z,19.90
2023-04-11T10:03:03.566Z,19.20
2023-04-11T10:05:34.250Z,19.10
2023-04-11T10:08:07.060Z,18.80
2023-04-11T10:10:37.806Z,19.00
2023-04-11T10:13:26.808Z,19.30
2023-04-11T10:16:11.569Z,19.20
2023-04-11T10:18:53.137Z,20.00
2023-04-11T10:21:36.565Z,20.00
2023-04-11T10:24:22.345Z,19.80
2023-04-11T10:27:07.772Z,19.90
2023-04-11T10:29:51.655Z,21.60
2023-04-11T10:32:23.499Z,22.60
2023-04-11T10:34:59.054Z,21.50
2023-04-11T10:37:34.477Z,20.60
2023-04-11T10:40:12.616Z,20.60
2023-04-11T10:42:47.099Z,20.70
2023-04-11T10:45:19.687Z,20.30
2023-04-11T10:48:01.851Z,20.00
2023-04-11T10:50:41.964Z,19.90
2023-04-11T10:53:33.083Z,19.70
2023-04-11T10:56:02.616Z,19.70
2023-04-11T10:58:39.609Z,20.20
2023-04-11T11:01:26.437Z,21.20
2023-04-11T11:03:56.923Z,21.90
2023-04-11T11:06:29.883Z,22.40
2023-04-11T11:09:00.562Z,23.20
2023-04-11T11:11:30.067Z,22.30
2023-04-11T11:14:01.250Z,21.70
2023-04-11T11:16:30.906Z,21.10
2023-04-11T11:19:02.237Z,21.30
2023-04-11T11:21:35.289Z,22.40
2023-04-11T11:24:05.936Z,22.30
2023-04-11T11:26:43.473Z,21.90
2023-04-11T11:29:14.361Z,21.60
2023-04-11T11:31:47.956Z,22.30
2023-04-11T11:34:23.304Z,23.60
2023-04-11T11:36:54.091Z,23.10
2023-04-11T11:39:24.475Z,23.00
2023-04-11T11:41:54.074Z,22.00
2023-04-11T11:44:31.275Z,22.70
2023-04-11T11:47:06.081Z,23.90
2023-04-11T11:49:47.268Z,24.10
2023-04-11T11:52:36.572Z,24.20
2023-04-11T11:55:11.368Z,24.00
2023-04-11T11:57:48.970Z,24.20
2023-04-11T12:00:29.227Z,22.50
2023-04-11T12:03:00.865Z,22.50
2023-04-11T12:05:32.957Z,22.20
2023-04-11T12:08:07.098Z,23.30
2023-04-11T12:10:46.024Z,23.40
2023-04-11T12:13:25.526Z,22.80
2023-04-11T12:16:00.442Z,21.30
2023-04-11T12:18:30.070Z,21.50
2023-04-11T12:20:59.836Z,21.70
2023-04-11T12:23:30.037Z,21.80
2023-04-11T12:26:00.131Z,22.20
2023-04-11T12:28:29.598Z,23.40
2023-04-11T12:30:59.168Z,22.60
2023-04-11T12:33:28.684Z,23.20
2023-04-11T12:35:58.165Z,23.00
2023-04-11T12:38:27.821Z,24.30
2023-04-11T12:41:19.613Z,24.80
2023-04-11T12:43:28.718Z,24.90
2023-04-11T12:45:58.206Z,24.90
2023-04-11T12:48:27.753Z,23.40
2023-04-11T12:50:57.446Z,22.80
2023-04-11T12:53:26.917Z,22.90
2023-04-11T12:55:56.595Z,21.70
2023-04-11T12:58:28.489Z,21.20
2023-04-11T13:00:59.621Z,22.10
2023-04-11T13:03:29.516Z,23.00
2023-04-11T13:05:59.882Z,21.90
2023-04-11T13:08:29.348Z,21.10
2023-04-11T13:10:58.991Z,21.10
2023-04-11T13:13:28.604Z,22.20
2023-04-11T13:15:58.096Z,22.10
2023-04-11T13:18:27.809Z,22.00
2023-04-11T13:20:57.288Z,21.10
2023-04-11T13:23:26.832Z,21.70
2023-04-11T13:25:56.607Z,21.90
2023-04-11T13:28:26.150Z,22.80
2023-04-11T13:30:57.225Z,23.30
2023-04-11T13:33:27.840Z,23.30
2023-04-11T13:35:58.461Z,23.10
2023-04-11T13:38:28.398Z,23.00
2023-04-11T13:40:57.884Z,22.90
2023-04-11T13:43:29.289Z,23.00
2023-04-11T13:45:58.798Z,23.40
2023-04-11T13:48:28.335Z,23.60
2023-04-11T13:50:57.935Z,23.80
2023-04-11T13:53:27.978Z,23.80
2023-04-11T13:55:57.781Z,23.40
2023-04-11T13:58:46.331Z,24.20
2023-04-11T14:01:16.111Z,24.40
2023-04-11T14:03:45.778Z,24.20
2023-04-11T14:06:15.666Z,24.10
2023-04-11T14:08:45.135Z,24.10
2023-04-11T14:11:14.676Z,24.20
2023-04-11T14:13:45.227Z,23.50
2023-04-11T14:16:14.876Z,23.30
2023-04-11T14:18:44.720Z,23.50
2023-04-11T14:21:14.766Z,23.20
2023-04-11T14:23:44.389Z,22.80
2023-04-11T14:26:14.911Z,23.30
2023-04-11T14:28:44.541Z,23.40
2023-04-11T14:31:14.230Z,23.50
2023-04-11T14:33:43.786Z,23.70
2023-04-11T14:36:13.990Z,23.40
2023-04-11T14:38:43.624Z,23.60
2023-04-11T14:41:13.154Z,23.30
2023-04-11T14:43:42.752Z,23.40
2023-04-11T14:46:13.175Z,23.60
2023-04-11T14:48:43.171Z,23.80
2023-04-11T14:51:12.629Z,23.80
2023-04-11T14:53:43.598Z,23.80
2023-04-11T14:56:13.066Z,23.10
2023-04-11T14:58:43.230Z,23.10
2023-04-11T15:01:12.724Z,23.20
2023-04-11T15:03:42.378Z,23.30
2023-04-11T15:06:14.820Z,22.80
2023-04-11T15:08:44.302Z,22.70
2023-04-11T15:11:13.838Z,22.70
2023-04-11T15:13:45.234Z,23.00
2023-04-11T15:16:16.280Z,23.20
2023-04-11T15:18:46.735Z,23.30
2023-04-11T15:21:23.949Z,23.10
2023-04-11T15:23:53.878Z,22.80
2023-04-11T15:26:24.287Z,22.30
2023-04-11T15:28:53.856Z,22.20
2023-04-11T15:31:32.205Z,22.40
2023-04-11T15:34:03.746Z,22.50
2023-04-11T15:36:34.503Z,22.60
2023-04-11T15:39:06.004Z,22.10
2023-04-11T15:41:36.417Z,22.10
2023-04-11T15:44:05.966Z,22.00
2023-04-11T15:46:35.793Z,22.00
2023-04-11T15:49:06.157Z,21.60
2023-04-11T15:51:35.999Z,21.60
2023-04-11T15:54:05.808Z,21.40
2023-04-11T15:56:35.295Z,21.50
2023-04-11T15:59:05.279Z,21.50
2023-04-11T16:01:36.363Z,21.50
2023-04-11T16:04:06.813Z,21.80
2023-04-11T16:06:36.616Z,22.10
2023-04-11T16:09:06.247Z,22.00
2023-04-11T16:11:37.359Z,21.50
2023-04-11T16:14:08.158Z,21.20
2023-04-11T16:16:38.151Z,21.20
2023-04-11T16:19:08.548Z,21.10
2023-04-11T16:21:39.010Z,20.80
2023-04-11T16:24:09.402Z,20.70
2023-04-11T16:26:40.022Z,21.10
2023-04-11T16:29:10.031Z,21.10
2023-04-11T16:31:40.124Z,21.10
2023-04-11T16:34:09.711Z,21.20
2023-04-11T16:36:39.451Z,21.20
2023-04-11T16:39:08.926Z,21.20
2023-04-11T16:41:38.711Z,20.80
2023-04-11T16:44:11.039Z,21.00
2023-04-11T16:46:42.019Z,20.90
2023-04-11T16:49:12.453Z,21.00
2023-04-11T16:51:44.279Z,21.00
2023-04-11T16:54:13.932Z,20.90
2023-04-11T16:56:43.588Z,20.80
2023-04-11T16:59:13.047Z,20.70
2023-04-11T17:01:45.832Z,20.50
2023-04-11T17:04:15.709Z,20.50
2023-04-11T17:06:46.430Z,20.40
2023-04-11T17:09:16.110Z,20.30
2023-04-11T17:11:45.585Z,20.50
2023-04-11T17:14:15.072Z,20.50
2023-04-11T17:16:46.622Z,20.60
2023-04-11T17:19:16.244Z,20.60
2023-04-11T17:21:45.692Z,20.70
2023-04-11T17:24:16.209Z,20.50
2023-04-11T17:26:45.677Z,20.50
2023-04-11T17:29:15.587Z,20.40
2023-04-11T17:31:47.183Z,20.20
2023-04-11T17:34:16.640Z,20.00
2023-04-11T17:36:46.121Z,20.00
2023-04-11T17:39:18.890Z,20.00
2023-04-11T17:41:48.456Z,19.90
2023-04-11T17:44:18.056Z,19.80
2023-04-11T17:46:48.112Z,19.90
2023-04-11T17:49:17.614Z,19.60
2023-04-11T17:51:58.131Z,19.70
2023-04-11T17:54:18.439Z,19.70
2023-04-11T17:56:48.128Z,19.70
2023-04-11T17:59:17.929Z,19.60
2023-04-11T18:01:47.491Z,19.50
2023-04-11T18:04:18.756Z,19.60
2023-04-11T18:06:48.321Z,19.30
2023-04-11T18:09:17.792Z,19.30
2023-04-11T18:11:47.490Z,19.30
2023-04-11T18:14:17.707Z,19.20
2023-04-11T18:16:49.899Z,19.20
2023-04-11T18:19:20.426Z,19.20
2023-04-11T18:21:50.693Z,19.20
2023-04-11T18:24:20.348Z,19.20
2023-04-11T18:26:49.904Z,19.20
2023-04-11T18:29:19.356Z,19.20
2023-04-11T18:31:49.364Z,19.10
2023-04-11T18:34:19.357Z,19.10
2023-04-11T18:36:49.569Z,19.10
2023-04-11T18:39:19.765Z,19.00
2023-04-11T18:41:52.320Z,19.00
2023-04-11T18:44:22.236Z,18.90
2023-04-11T18:46:54.099Z,18.90
2023-04-11T18:49:24.811Z,18.80
2023-04-11T18:51:54.833Z,18.80
2023-04-11T18:54:25.368Z,18.80
2023-04-11T18:56:56.210Z,18.70
2023-04-11T18:59:29.093Z,18.60
2023-04-11T19:01:58.138Z,18.60
2023-04-11T19:04:28.342Z,18.60
2023-04-11T19:06:59.235Z,18.50
2023-04-11T19:09:30.512Z,18.50
2023-04-11T19:12:00.024Z,18.50
2023-04-11T19:14:29.564Z,18.40
2023-04-11T19:16:59.236Z,18.30
2023-04-11T19:19:30.052Z,18.30
2023-04-11T19:21:59.720Z,18.30
2023-04-11T19:24:30.359Z,18.00
2023-04-11T19:26:59.985Z,17.80
2023-04-11T19:29:29.476Z,17.80
2023-04-11T19:32:00.672Z,18.00
2023-04-11T19:34:31.911Z,18.00
2023-04-11T19:37:01.389Z,18.00
2023-04-11T19:39:33.240Z,18.00
2023-04-11T19:42:04.867Z,17.90
2023-04-11T19:44:35.127Z,17.90
2023-04-11T19:47:04.673Z,17.80
2023-04-11T19:49:35.358Z,17.70
2023-04-11T19:52:05.284Z,17.80
2023-04-11T19:54:34.843Z,17.70
2023-04-11T19:57:04.595Z,17.70
2023-04-11T19:59:34.086Z,17.60
2023-04-11T20:02:03.731Z,17.50
2023-04-11T20:04:33.630Z,17.50
2023-04-11T20:07:04.253Z,17.50
2023-04-11T20:09:34.026Z,17.50
2023-04-11T20:12:05.902Z,17.50
2023-04-11T20:14:37.785Z,17.30
2023-04-11T20:17:09.483Z,16.40
2023-04-11T20:19:42.321Z,16.10
2023-04-11T20:22:13.885Z,16.50
2023-04-11T20:24:43.992Z,16.90
2023-04-11T20:27:14.753Z,17.00
2023-04-11T20:29:46.610Z,17.10
2023-04-11T20:32:17.151Z,17.10
2023-04-11T20:34:47.234Z,17.10
2023-04-11T20:37:18.810Z,17.00
2023-04-11T20:39:47.848Z,17.10
2023-04-11T20:42:18.396Z,17.00
2023-04-11T20:44:48.182Z,17.10
2023-04-11T20:47:17.661Z,17.00
2023-04-11T20:49:48.918Z,17.00
2023-04-11T20:52:18.769Z,17.00
2023-04-11T20:54:48.390Z,16.90
2023-04-11T20:57:17.951Z,16.90
2023-04-11T20:59:47.803Z,16.90
2023-04-11T21:02:17.976Z,16.80
2023-04-11T21:04:49.565Z,16.80
2023-04-11T21:07:20.294Z,16.80
2023-04-11T21:09:51.036Z,16.70
2023-04-11T21:12:20.589Z,16.70
2023-04-11T21:14:50.119Z,16.70
2023-04-11T21:17:20.598Z,16.60
2023-04-11T21:19:50.090Z,16.60
2023-04-11T21:22:20.524Z,16.50
2023-04-11T21:24:50.001Z,16.50
2023-04-11T21:27:19.498Z,16.40
2023-04-11T21:29:49.174Z,16.30
2023-04-11T21:32:18.655Z,16.30
2023-04-11T21:34:48.807Z,16.30
2023-04-11T21:37:19.129Z,16.30
2023-04-11T21:39:48.616Z,16.30
2023-04-11T21:42:18.076Z,16.30
2023-04-11T21:44:47.593Z,16.30
2023-04-11T21:47:19.389Z,16.20
2023-04-11T21:49:50.506Z,16.20
2023-04-11T21:52:20.220Z,16.20
2023-04-11T21:54:50.131Z,16.10
2023-04-11T21:57:21.072Z,16.10
2023-04-11T21:59:51.160Z,16.00
2023-04-11T22:02:22.099Z,16.00
2023-04-11T22:05:05.868Z,15.70
2023-04-11T22:07:25.445Z,15.10
2023-04-11T22:09:57.266Z,15.10
2023-04-11T22:12:28.530Z,15.40
2023-04-11T22:14:57.997Z,15.60
2023-04-11T22:17:29.364Z,15.70
2023-04-11T22:19:59.692Z,15.80
2023-04-11T22:22:31.660Z,15.80
2023-04-11T22:25:01.209Z,15.80
2023-04-11T22:27:32.471Z,15.70
2023-04-11T22:30:02.584Z,15.70
2023-04-11T22:32:33.781Z,15.70
2023-04-11T22:35:05.081Z,15.70
2023-04-11T22:37:34.845Z,14.90
2023-04-11T22:40:06.832Z,15.20
2023-04-11T22:42:37.763Z,14.70
2023-04-11T22:45:09.070Z,14.80
2023-04-11T22:47:40.478Z,15.10
2023-04-11T22:50:11.392Z,15.30
2023-04-11T22:52:42.741Z,15.40
2023-04-11T22:55:15.727Z,15.40
2023-04-11T22:57:45.328Z,15.40
2023-04-11T23:00:16.495Z,15.40
2023-04-11T23:02:47.693Z,15.40
2023-04-11T23:05:17.322Z,15.40
2023-04-11T23:07:47.348Z,15.30
2023-04-11T23:10:17.392Z,15.30
2023-04-11T23:12:47.445Z,15.30
2023-04-11T23:15:17.679Z,14.70
2023-04-11T23:17:48.067Z,14.50
2023-04-11T23:20:17.802Z,14.20
2023-04-11T23:22:47.360Z,14.00
2023-04-11T23:25:18.167Z,13.70
2023-04-11T23:27:47.751Z,13.70
2023-04-11T23:30:17.515Z,14.10
2023-04-11T23:32:48.960Z,14.40
2023-04-11T23:35:20.014Z,14.70
2023-04-11T23:37:50.269Z,14.80
2023-04-11T23:40:19.857Z,14.90
2023-04-11T23:42:49.364Z,14.80
2023-04-11T23:45:20.558Z,14.50
2023-04-11T23:47:51.166Z,14.30
2023-04-11T23:50:20.750Z,14.50
2023-04-11T23:52:50.319Z,14.60
2023-04-11T23:55:21.514Z,14.70
2023-04-11T23:57:53.438Z,14.70
